Terminal Aerodrome Forecast
Issued by NWS Houston/Galveston, TX

Home | Current Version | Previous Version | Text Only | Print | Product List | Glossary On
Versions: 1 2 3 4 5 6 7 8 9 10 11 12 13 14 15 16 17
000
FTUS44 KHGX 230520
TAFCLL
TAF
KCLL 230520Z 2306/2406 00000KT P6SM FEW060
     FM230900 00000KT 4SM BR SCT005 SCT250
     FM231500 16007KT P6SM SCT008 SCT050
     FM231800 16011KT P6SM BKN250=

USA.gov is the U.S. government's official web portal to all federal, state and local government web resources and services.